sensor_id;sensor_type;location;lat;lon;timestamp;P1;durP1;ratioP1;P2;durP2;ratioP2
9997;SDS011;5038;53.064;8.624;2023-06-22T00:01:33;15.43;;;14.03;;
9997;SDS011;5038;53.064;8.624;2023-06-22T00:04:01;15.40;;;14.10;;
9997;SDS011;5038;53.064;8.624;2023-06-22T00:06:29;14.97;;;13.57;;
9997;SDS011;5038;53.064;8.624;2023-06-22T00:08:57;16.00;;;14.50;;
9997;SDS011;5038;53.064;8.624;2023-06-22T00:11:25;15.57;;;14.27;;
9997;SDS011;5038;53.064;8.624;2023-06-22T00:13:54;14.10;;;12.60;;
9997;SDS011;5038;53.064;8.624;2023-06-22T00:16:23;16.60;;;14.90;;
9997;SDS011;5038;53.064;8.624;2023-06-22T00:18:51;15.57;;;14.17;;
9997;SDS011;5038;53.064;8.624;2023-06-22T00:21:19;16.90;;;15.30;;
9997;SDS011;5038;53.064;8.624;2023-06-22T00:23:47;16.93;;;15.43;;
9997;SDS011;5038;53.064;8.624;2023-06-22T00:26:15;16.90;;;15.20;;
9997;SDS011;5038;53.064;8.624;2023-06-22T00:28:44;16.93;;;15.23;;
9997;SDS011;5038;53.064;8.624;2023-06-22T00:31:12;16.17;;;14.47;;
9997;SDS011;5038;53.064;8.624;2023-06-22T00:33:41;15.67;;;14.17;;
9997;SDS011;5038;53.064;8.624;2023-06-22T00:36:10;17.63;;;15.93;;
9997;SDS011;5038;53.064;8.624;2023-06-22T00:38:39;17.00;;;15.57;;
9997;SDS011;5038;53.064;8.624;2023-06-22T00:41:07;18.30;;;16.60;;
9997;SDS011;5038;53.064;8.624;2023-06-22T00:43:36;16.30;;;14.80;;
9997;SDS011;5038;53.064;8.624;2023-06-22T00:46:04;17.07;;;15.57;;
9997;SDS011;5038;53.064;8.624;2023-06-22T00:48:32;16.80;;;15.30;;
9997;SDS011;5038;53.064;8.624;2023-06-22T00:51:04;14.87;;;13.37;;
9997;SDS011;5038;53.064;8.624;2023-06-22T00:53:32;18.83;;;17.10;;
9997;SDS011;5038;53.064;8.624;2023-06-22T00:56:03;17.80;;;16.10;;
9997;SDS011;5038;53.064;8.624;2023-06-22T00:58:35;19.23;;;17.37;;
9997;SDS011;5038;53.064;8.624;2023-06-22T01:01:03;17.53;;;16.03;;
9997;SDS011;5038;53.064;8.624;2023-06-22T01:03:31;16.50;;;15.00;;
9997;SDS011;5038;53.064;8.624;2023-06-22T01:06:07;17.20;;;15.70;;
9997;SDS011;5038;53.064;8.624;2023-06-22T01:08:42;16.40;;;14.70;;
9997;SDS011;5038;53.064;8.624;2023-06-22T01:11:17;16.80;;;15.20;;
9997;SDS011;5038;53.064;8.624;2023-06-22T01:13:50;17.10;;;15.47;;
9997;SDS011;5038;53.064;8.624;2023-06-22T01:16:26;17.40;;;15.87;;
9997;SDS011;5038;53.064;8.624;2023-06-22T01:19:00;16.20;;;14.70;;
9997;SDS011;5038;53.064;8.624;2023-06-22T01:21:33;16.13;;;14.63;;
9997;SDS011;5038;53.064;8.624;2023-06-22T01:24:07;17.33;;;15.63;;
9997;SDS011;5038;53.064;8.624;2023-06-22T01:26:46;15.40;;;13.97;;
9997;SDS011;5038;53.064;8.624;2023-06-22T01:29:28;16.33;;;14.83;;
9997;SDS011;5038;53.064;8.624;2023-06-22T01:31:58;17.53;;;15.80;;
9997;SDS011;5038;53.064;8.624;2023-06-22T01:34:28;18.37;;;16.70;;
9997;SDS011;5038;53.064;8.624;2023-06-22T01:36:58;18.80;;;17.10;;
9997;SDS011;5038;53.064;8.624;2023-06-22T01:39:28;19.53;;;17.73;;
9997;SDS011;5038;53.064;8.624;2023-06-22T01:41:57;18.60;;;16.87;;
9997;SDS011;5038;53.064;8.624;2023-06-22T01:44:26;19.40;;;17.60;;
9997;SDS011;5038;53.064;8.624;2023-06-22T01:46:57;18.10;;;16.40;;
9997;SDS011;5038;53.064;8.624;2023-06-22T01:49:26;20.27;;;18.47;;
9997;SDS011;5038;53.064;8.624;2023-06-22T01:51:54;18.50;;;16.70;;
9997;SDS011;5038;53.064;8.624;2023-06-22T01:54:23;19.57;;;17.70;;
9997;SDS011;5038;53.064;8.624;2023-06-22T01:56:51;18.23;;;16.53;;
9997;SDS011;5038;53.064;8.624;2023-06-22T01:59:20;19.60;;;17.80;;
9997;SDS011;5038;53.064;8.624;2023-06-22T02:01:59;20.67;;;18.53;;
9997;SDS011;5038;53.064;8.624;2023-06-22T02:04:33;21.17;;;19.23;;
9997;SDS011;5038;53.064;8.624;2023-06-22T02:07:05;22.90;;;20.73;;
9997;SDS011;5038;53.064;8.624;2023-06-22T02:09:40;23.03;;;21.00;;
9997;SDS011;5038;53.064;8.624;2023-06-22T02:12:12;20.97;;;19.13;;
9997;SDS011;5038;53.064;8.624;2023-06-22T02:14:44;21.00;;;18.80;;
9997;SDS011;5038;53.064;8.624;2023-06-22T02:17:16;24.07;;;21.73;;
9997;SDS011;5038;53.064;8.624;2023-06-22T02:19:44;22.47;;;20.47;;
9997;SDS011;5038;53.064;8.624;2023-06-22T02:22:13;20.53;;;18.63;;
9997;SDS011;5038;53.064;8.624;2023-06-22T02:24:43;22.87;;;20.80;;
9997;SDS011;5038;53.064;8.624;2023-06-22T02:27:11;21.77;;;19.70;;
9997;SDS011;5038;53.064;8.624;2023-06-22T02:29:39;22.97;;;20.67;;
9997;SDS011;5038;53.064;8.624;2023-06-22T02:32:08;22.10;;;20.17;;
9997;SDS011;5038;53.064;8.624;2023-06-22T02:34:39;21.07;;;18.93;;
9997;SDS011;5038;53.064;8.624;2023-06-22T02:37:07;21.87;;;19.80;;
9997;SDS011;5038;53.064;8.624;2023-06-22T02:39:39;21.33;;;19.50;;
9997;SDS011;5038;53.064;8.624;2023-06-22T02:42:07;20.70;;;18.90;;
9997;SDS011;5038;53.064;8.624;2023-06-22T02:44:38;20.43;;;18.47;;
9997;SDS011;5038;53.064;8.624;2023-06-22T02:47:06;19.50;;;17.53;;
9997;SDS011;5038;53.064;8.624;2023-06-22T02:49:34;18.90;;;17.30;;
9997;SDS011;5038;53.064;8.624;2023-06-22T02:52:04;20.77;;;18.77;;
9997;SDS011;5038;53.064;8.624;2023-06-22T02:54:33;22.23;;;20.33;;
9997;SDS011;5038;53.064;8.624;2023-06-22T02:57:01;22.50;;;20.13;;
9997;SDS011;5038;53.064;8.624;2023-06-22T02:59:30;24.83;;;22.53;;
9997;SDS011;5038;53.064;8.624;2023-06-22T03:02:07;23.00;;;20.50;;
9997;SDS011;5038;53.064;8.624;2023-06-22T03:04:35;23.30;;;21.10;;
9997;SDS011;5038;53.064;8.624;2023-06-22T03:07:05;21.03;;;19.07;;
9997;SDS011;5038;53.064;8.624;2023-06-22T03:09:33;22.67;;;20.57;;
9997;SDS011;5038;53.064;8.624;2023-06-22T03:12:02;22.60;;;20.70;;
9997;SDS011;5038;53.064;8.624;2023-06-22T03:14:41;22.90;;;20.80;;
9997;SDS011;5038;53.064;8.624;2023-06-22T03:17:09;23.93;;;21.77;;
9997;SDS011;5038;53.064;8.624;2023-06-22T03:19:38;22.33;;;20.30;;
9997;SDS011;5038;53.064;8.624;2023-06-22T03:22:07;22.03;;;20.03;;
9997;SDS011;5038;53.064;8.624;2023-06-22T03:24:38;25.07;;;22.87;;
9997;SDS011;5038;53.064;8.624;2023-06-22T03:27:07;24.23;;;21.40;;
9997;SDS011;5038;53.064;8.624;2023-06-22T03:29:35;22.70;;;20.43;;
9997;SDS011;5038;53.064;8.624;2023-06-22T03:32:03;26.03;;;23.67;;
9997;SDS011;5038;53.064;8.624;2023-06-22T03:34:32;26.07;;;23.37;;
9997;SDS011;5038;53.064;8.624;2023-06-22T03:37:01;25.07;;;22.43;;
9997;SDS011;5038;53.064;8.624;2023-06-22T03:39:31;25.60;;;23.20;;
9997;SDS011;5038;53.064;8.624;2023-06-22T03:41:59;25.20;;;22.70;;
9997;SDS011;5038;53.064;8.624;2023-06-22T03:44:27;25.50;;;23.20;;
9997;SDS011;5038;53.064;8.624;2023-06-22T03:46:55;26.90;;;24.50;;
9997;SDS011;5038;53.064;8.624;2023-06-22T03:49:23;23.63;;;21.57;;
9997;SDS011;5038;53.064;8.624;2023-06-22T03:51:52;22.90;;;20.80;;
9997;SDS011;5038;53.064;8.624;2023-06-22T03:54:20;24.37;;;22.23;;
9997;SDS011;5038;53.064;8.624;2023-06-22T03:56:49;25.37;;;23.13;;
9997;SDS011;5038;53.064;8.624;2023-06-22T03:59:17;25.00;;;22.67;;
9997;SDS011;5038;53.064;8.624;2023-06-22T04:01:45;25.87;;;23.50;;
9997;SDS011;5038;53.064;8.624;2023-06-22T04:04:13;25.33;;;23.10;;
9997;SDS011;5038;53.064;8.624;2023-06-22T04:06:42;24.10;;;21.90;;
9997;SDS011;5038;53.064;8.624;2023-06-22T04:09:10;21.80;;;19.83;;
9997;SDS011;5038;53.064;8.624;2023-06-22T04:11:38;24.40;;;22.20;;
9997;SDS011;5038;53.064;8.624;2023-06-22T04:14:08;27.27;;;24.87;;
9997;SDS011;5038;53.064;8.624;2023-06-22T04:16:36;27.33;;;24.73;;
9997;SDS011;5038;53.064;8.624;2023-06-22T04:19:04;25.63;;;23.27;;
9997;SDS011;5038;53.064;8.624;2023-06-22T04:21:32;25.87;;;23.47;;
9997;SDS011;5038;53.064;8.624;2023-06-22T04:24:00;26.57;;;24.17;;
9997;SDS011;5038;53.064;8.624;2023-06-22T04:26:28;29.30;;;26.57;;
9997;SDS011;5038;53.064;8.624;2023-06-22T04:28:56;25.83;;;23.63;;
9997;SDS011;5038;53.064;8.624;2023-06-22T04:31:26;24.87;;;22.57;;
9997;SDS011;5038;53.064;8.624;2023-06-22T04:33:59;28.63;;;25.93;;
9997;SDS011;5038;53.064;8.624;2023-06-22T04:36:33;29.20;;;26.60;;
9997;SDS011;5038;53.064;8.624;2023-06-22T04:39:05;29.00;;;26.47;;
9997;SDS011;5038;53.064;8.624;2023-06-22T04:41:36;28.83;;;26.13;;
9997;SDS011;5038;53.064;8.624;2023-06-22T04:44:09;28.80;;;26.10;;
9997;SDS011;5038;53.064;8.624;2023-06-22T04:46:39;30.00;;;27.30;;
9997;SDS011;5038;53.064;8.624;2023-06-22T04:49:07;29.87;;;27.00;;
9997;SDS011;5038;53.064;8.624;2023-06-22T04:51:37;31.10;;;28.17;;
9997;SDS011;5038;53.064;8.624;2023-06-22T04:54:07;30.60;;;27.60;;
9997;SDS011;5038;53.064;8.624;2023-06-22T04:56:36;30.63;;;27.37;;
9997;SDS011;5038;53.064;8.624;2023-06-22T04:59:07;29.67;;;26.87;;
9997;SDS011;5038;53.064;8.624;2023-06-22T05:01:40;29.77;;;26.97;;
9997;SDS011;5038;53.064;8.624;2023-06-22T05:04:08;30.93;;;28.13;;
9997;SDS011;5038;53.064;8.624;2023-06-22T05:06:37;29.90;;;26.90;;
9997;SDS011;5038;53.064;8.624;2023-06-22T05:09:06;31.50;;;28.50;;
9997;SDS011;5038;53.064;8.624;2023-06-22T05:11:35;30.60;;;27.80;;
9997;SDS011;5038;53.064;8.624;2023-06-22T05:14:03;33.40;;;30.10;;
9997;SDS011;5038;53.064;8.624;2023-06-22T05:16:31;34.37;;;30.90;;
9997;SDS011;5038;53.064;8.624;2023-06-22T05:19:00;30.00;;;27.00;;
9997;SDS011;5038;53.064;8.624;2023-06-22T05:21:30;31.03;;;28.00;;
9997;SDS011;5038;53.064;8.624;2023-06-22T05:23:58;30.00;;;27.40;;
9997;SDS011;5038;53.064;8.624;2023-06-22T05:26:29;32.50;;;29.30;;
9997;SDS011;5038;53.064;8.624;2023-06-22T05:28:58;32.03;;;28.97;;
9997;SDS011;5038;53.064;8.624;2023-06-22T05:31:27;31.90;;;28.50;;
9997;SDS011;5038;53.064;8.624;2023-06-22T05:33:56;30.17;;;27.17;;
9997;SDS011;5038;53.064;8.624;2023-06-22T05:36:25;28.13;;;25.40;;
9997;SDS011;5038;53.064;8.624;2023-06-22T05:38:56;27.97;;;25.10;;
9997;SDS011;5038;53.064;8.624;2023-06-22T05:41:24;26.60;;;23.90;;
9997;SDS011;5038;53.064;8.624;2023-06-22T05:43:52;28.73;;;25.83;;
9997;SDS011;5038;53.064;8.624;2023-06-22T05:46:20;28.17;;;25.20;;
9997;SDS011;5038;53.064;8.624;2023-06-22T05:48:49;26.50;;;23.80;;
9997;SDS011;5038;53.064;8.624;2023-06-22T05:51:17;28.60;;;25.70;;
9997;SDS011;5038;53.064;8.624;2023-06-22T05:53:46;25.97;;;23.37;;
9997;SDS011;5038;53.064;8.624;2023-06-22T05:56:16;26.00;;;23.50;;
9997;SDS011;5038;53.064;8.624;2023-06-22T05:58:45;24.80;;;22.27;;
9997;SDS011;5038;53.064;8.624;2023-06-22T06:01:13;25.70;;;23.30;;
9997;SDS011;5038;53.064;8.624;2023-06-22T06:03:42;25.20;;;22.80;;
9997;SDS011;5038;53.064;8.624;2023-06-22T06:06:10;22.90;;;20.50;;
9997;SDS011;5038;53.064;8.624;2023-06-22T06:08:39;21.50;;;19.20;;
9997;SDS011;5038;53.064;8.624;2023-06-22T06:11:09;20.67;;;18.53;;
9997;SDS011;5038;53.064;8.624;2023-06-22T06:13:38;19.87;;;17.97;;
9997;SDS011;5038;53.064;8.624;2023-06-22T06:16:06;20.00;;;18.00;;
9997;SDS011;5038;53.064;8.624;2023-06-22T06:18:34;22.33;;;20.20;;
9997;SDS011;5038;53.064;8.624;2023-06-22T06:21:03;21.03;;;18.70;;
9997;SDS011;5038;53.064;8.624;2023-06-22T06:23:32;19.80;;;17.90;;
9997;SDS011;5038;53.064;8.624;2023-06-22T06:26:00;19.63;;;17.73;;
9997;SDS011;5038;53.064;8.624;2023-06-22T06:28:30;17.93;;;16.17;;
9997;SDS011;5038;53.064;8.624;2023-06-22T06:30:58;18.40;;;16.63;;
9997;SDS011;5038;53.064;8.624;2023-06-22T06:33:26;19.70;;;17.57;;
9997;SDS011;5038;53.064;8.624;2023-06-22T06:35:54;19.43;;;17.53;;
9997;SDS011;5038;53.064;8.624;2023-06-22T06:38:22;17.37;;;15.00;;
9997;SDS011;5038;53.064;8.624;2023-06-22T06:40:50;17.37;;;14.90;;
9997;SDS011;5038;53.064;8.624;2023-06-22T06:43:19;19.00;;;16.93;;
9997;SDS011;5038;53.064;8.624;2023-06-22T06:45:48;18.13;;;16.37;;
9997;SDS011;5038;53.064;8.624;2023-06-22T06:48:18;18.43;;;16.63;;
9997;SDS011;5038;53.064;8.624;2023-06-22T06:50:46;18.70;;;16.90;;
9997;SDS011;5038;53.064;8.624;2023-06-22T06:53:14;18.73;;;16.60;;
9997;SDS011;5038;53.064;8.624;2023-06-22T06:55:42;19.03;;;17.10;;
9997;SDS011;5038;53.064;8.624;2023-06-22T06:58:11;19.53;;;17.70;;
9997;SDS011;5038;53.064;8.624;2023-06-22T07:00:40;21.27;;;19.20;;
9997;SDS011;5038;53.064;8.624;2023-06-22T07:03:09;19.90;;;17.40;;
9997;SDS011;5038;53.064;8.624;2023-06-22T07:05:37;18.67;;;16.77;;
9997;SDS011;5038;53.064;8.624;2023-06-22T07:08:05;19.63;;;17.53;;
9997;SDS011;5038;53.064;8.624;2023-06-22T07:10:34;19.80;;;17.90;;
9997;SDS011;5038;53.064;8.624;2023-06-22T07:13:02;20.90;;;19.00;;
9997;SDS011;5038;53.064;8.624;2023-06-22T07:15:30;17.93;;;16.13;;
9997;SDS011;5038;53.064;8.624;2023-06-22T07:17:58;19.30;;;17.50;;
9997;SDS011;5038;53.064;8.624;2023-06-22T07:20:28;18.90;;;16.90;;
9997;SDS011;5038;53.064;8.624;2023-06-22T07:22:56;18.80;;;17.00;;
9997;SDS011;5038;53.064;8.624;2023-06-22T07:25:25;17.57;;;15.77;;
9997;SDS011;5038;53.064;8.624;2023-06-22T07:27:57;20.00;;;18.10;;
9997;SDS011;5038;53.064;8.624;2023-06-22T07:30:28;17.70;;;15.80;;
9997;SDS011;5038;53.064;8.624;2023-06-22T07:32:57;17.10;;;15.40;;
9997;SDS011;5038;53.064;8.624;2023-06-22T07:35:31;20.10;;;17.70;;
9997;SDS011;5038;53.064;8.624;2023-06-22T07:37:59;19.40;;;17.30;;
9997;SDS011;5038;53.064;8.624;2023-06-22T07:40:31;17.20;;;15.70;;
9997;SDS011;5038;53.064;8.624;2023-06-22T07:43:00;16.53;;;14.77;;
9997;SDS011;5038;53.064;8.624;2023-06-22T07:45:29;16.53;;;14.93;;
9997;SDS011;5038;53.064;8.624;2023-06-22T07:47:59;18.20;;;16.37;;
9997;SDS011;5038;53.064;8.624;2023-06-22T07:50:28;17.43;;;15.83;;
9997;SDS011;5038;53.064;8.624;2023-06-22T07:52:59;17.93;;;15.90;;
9997;SDS011;5038;53.064;8.624;2023-06-22T07:55:27;17.60;;;15.67;;
9997;SDS011;5038;53.064;8.624;2023-06-22T07:57:56;16.20;;;14.70;;
9997;SDS011;5038;53.064;8.624;2023-06-22T08:00:24;14.80;;;13.30;;
9997;SDS011;5038;53.064;8.624;2023-06-22T08:02:52;14.80;;;13.30;;
9997;SDS011;5038;53.064;8.624;2023-06-22T08:05:21;15.10;;;13.50;;
9997;SDS011;5038;53.064;8.624;2023-06-22T08:07:49;14.40;;;12.90;;
9997;SDS011;5038;53.064;8.624;2023-06-22T08:10:19;14.07;;;12.70;;
9997;SDS011;5038;53.064;8.624;2023-06-22T08:12:47;12.90;;;11.50;;
9997;SDS011;5038;53.064;8.624;2023-06-22T08:15:15;16.40;;;14.80;;
9997;SDS011;5038;53.064;8.624;2023-06-22T08:17:44;12.43;;;11.23;;
9997;SDS011;5038;53.064;8.624;2023-06-22T08:20:12;11.73;;;10.53;;
9997;SDS011;5038;53.064;8.624;2023-06-22T08:22:41;14.17;;;12.87;;
9997;SDS011;5038;53.064;8.624;2023-06-22T08:25:10;14.80;;;11.70;;
9997;SDS011;5038;53.064;8.624;2023-06-22T08:27:42;13.83;;;11.90;;
9997;SDS011;5038;53.064;8.624;2023-06-22T08:30:12;13.37;;;11.97;;
9997;SDS011;5038;53.064;8.624;2023-06-22T08:32:41;14.90;;;13.47;;
9997;SDS011;5038;53.064;8.624;2023-06-22T08:35:09;13.70;;;12.27;;
9997;SDS011;5038;53.064;8.624;2023-06-22T08:37:37;12.80;;;11.60;;
9997;SDS011;5038;53.064;8.624;2023-06-22T08:40:07;13.00;;;11.73;;
9997;SDS011;5038;53.064;8.624;2023-06-22T08:42:37;13.17;;;11.97;;
9997;SDS011;5038;53.064;8.624;2023-06-22T08:45:10;11.63;;;10.43;;
9997;SDS011;5038;53.064;8.624;2023-06-22T08:47:38;11.50;;;9.63;;
9997;SDS011;5038;53.064;8.624;2023-06-22T08:50:08;10.07;;;8.40;;
9997;SDS011;5038;53.064;8.624;2023-06-22T08:52:37;12.53;;;10.37;;
9997;SDS011;5038;53.064;8.624;2023-06-22T08:55:07;12.00;;;10.70;;
9997;SDS011;5038;53.064;8.624;2023-06-22T08:57:37;9.00;;;8.10;;
9997;SDS011;5038;53.064;8.624;2023-06-22T09:00:06;10.23;;;8.97;;
9997;SDS011;5038;53.064;8.624;2023-06-22T09:02:44;9.33;;;8.33;;
9997;SDS011;5038;53.064;8.624;2023-06-22T09:05:13;11.40;;;9.47;;
9997;SDS011;5038;53.064;8.624;2023-06-22T09:07:42;9.53;;;8.10;;
9997;SDS011;5038;53.064;8.624;2023-06-22T09:10:10;9.30;;;7.83;;
9997;SDS011;5038;53.064;8.624;2023-06-22T09:12:39;10.20;;;8.30;;
9997;SDS011;5038;53.064;8.624;2023-06-22T09:15:07;10.43;;;8.03;;
9997;SDS011;5038;53.064;8.624;2023-06-22T09:17:42;11.40;;;7.90;;
9997;SDS011;5038;53.064;8.624;2023-06-22T09:20:12;9.90;;;7.73;;
9997;SDS011;5038;53.064;8.624;2023-06-22T09:22:40;7.80;;;6.40;;
9997;SDS011;5038;53.064;8.624;2023-06-22T09:25:09;10.77;;;9.67;;
9997;SDS011;5038;53.064;8.624;2023-06-22T09:27:37;8.10;;;7.27;;
9997;SDS011;5038;53.064;8.624;2023-06-22T09:30:05;7.60;;;6.77;;
9997;SDS011;5038;53.064;8.624;2023-06-22T09:32:34;10.07;;;8.73;;
9997;SDS011;5038;53.064;8.624;2023-06-22T09:35:04;9.90;;;8.17;;
9997;SDS011;5038;53.064;8.624;2023-06-22T09:37:34;7.90;;;6.87;;
9997;SDS011;5038;53.064;8.624;2023-06-22T09:40:03;8.93;;;7.13;;
9997;SDS011;5038;53.064;8.624;2023-06-22T09:42:35;8.47;;;7.03;;
9997;SDS011;5038;53.064;8.624;2023-06-22T09:45:04;9.23;;;6.70;;
9997;SDS011;5038;53.064;8.624;2023-06-22T09:47:33;12.33;;;8.77;;
9997;SDS011;5038;53.064;8.624;2023-06-22T09:50:01;11.53;;;8.10;;
9997;SDS011;5038;53.064;8.624;2023-06-22T09:52:30;9.73;;;7.60;;
9997;SDS011;5038;53.064;8.624;2023-06-22T09:55:15;9.10;;;8.20;;
9997;SDS011;5038;53.064;8.624;2023-06-22T09:57:43;8.20;;;6.63;;
9997;SDS011;5038;53.064;8.624;2023-06-22T10:00:12;8.90;;;8.00;;
9997;SDS011;5038;53.064;8.624;2023-06-22T10:02:41;10.13;;;7.97;;
9997;SDS011;5038;53.064;8.624;2023-06-22T10:05:11;8.57;;;6.73;;
9997;SDS011;5038;53.064;8.624;2023-06-22T10:07:39;10.73;;;8.50;;
9997;SDS011;5038;53.064;8.624;2023-06-22T10:10:10;9.70;;;6.20;;
9997;SDS011;5038;53.064;8.624;2023-06-22T10:12:43;7.27;;;5.73;;
9997;SDS011;5038;53.064;8.624;2023-06-22T10:15:13;8.00;;;6.80;;
9997;SDS011;5038;53.064;8.624;2023-06-22T10:17:42;12.60;;;7.43;;
9997;SDS011;5038;53.064;8.624;2023-06-22T10:20:11;7.97;;;7.10;;
9997;SDS011;5038;53.064;8.624;2023-06-22T10:22:40;8.77;;;7.97;;
9997;SDS011;5038;53.064;8.624;2023-06-22T10:25:09;9.87;;;8.70;;
9997;SDS011;5038;53.064;8.624;2023-06-22T10:27:37;9.20;;;7.53;;
9997;SDS011;5038;53.064;8.624;2023-06-22T10:30:09;8.87;;;7.97;;
9997;SDS011;5038;53.064;8.624;2023-06-22T10:32:39;10.23;;;8.60;;
9997;SDS011;5038;53.064;8.624;2023-06-22T10:35:09;9.47;;;8.50;;
9997;SDS011;5038;53.064;8.624;2023-06-22T10:37:40;8.77;;;7.90;;
9997;SDS011;5038;53.064;8.624;2023-06-22T10:40:09;8.87;;;7.40;;
9997;SDS011;5038;53.064;8.624;2023-06-22T10:42:39;8.90;;;8.00;;
9997;SDS011;5038;53.064;8.624;2023-06-22T10:45:08;10.40;;;9.10;;
9997;SDS011;5038;53.064;8.624;2023-06-22T10:47:37;8.53;;;6.70;;
9997;SDS011;5038;53.064;8.624;2023-06-22T10:50:05;11.80;;;9.20;;
9997;SDS011;5038;53.064;8.624;2023-06-22T10:52:34;10.30;;;9.20;;
9997;SDS011;5038;53.064;8.624;2023-06-22T10:55:03;10.27;;;9.07;;
9997;SDS011;5038;53.064;8.624;2023-06-22T10:57:31;9.27;;;8.40;;
9997;SDS011;5038;53.064;8.624;2023-06-22T10:59:59;10.53;;;8.50;;
9997;SDS011;5038;53.064;8.624;2023-06-22T11:02:29;10.17;;;9.17;;
9997;SDS011;5038;53.064;8.624;2023-06-22T11:04:57;8.67;;;7.87;;
9997;SDS011;5038;53.064;8.624;2023-06-22T11:07:26;10.03;;;9.03;;
9997;SDS011;5038;53.064;8.624;2023-06-22T11:09:55;10.63;;;9.53;;
9997;SDS011;5038;53.064;8.624;2023-06-22T11:12:23;9.50;;;8.60;;
9997;SDS011;5038;53.064;8.624;2023-06-22T11:14:51;8.27;;;7.23;;
9997;SDS011;5038;53.064;8.624;2023-06-22T11:17:19;9.73;;;8.43;;
9997;SDS011;5038;53.064;8.624;2023-06-22T11:19:48;8.50;;;7.70;;
9997;SDS011;5038;53.064;8.624;2023-06-22T11:22:17;9.70;;;8.70;;
9997;SDS011;5038;53.064;8.624;2023-06-22T11:24:45;10.03;;;8.90;;
9997;SDS011;5038;53.064;8.624;2023-06-22T11:27:13;10.57;;;9.30;;
9997;SDS011;5038;53.064;8.624;2023-06-22T11:29:41;11.30;;;8.93;;
9997;SDS011;5038;53.064;8.624;2023-06-22T11:32:09;11.03;;;9.00;;
9997;SDS011;5038;53.064;8.624;2023-06-22T11:34:40;8.30;;;7.40;;
9997;SDS011;5038;53.064;8.624;2023-06-22T11:37:09;10.10;;;9.03;;
9997;SDS011;5038;53.064;8.624;2023-06-22T11:39:37;8.40;;;7.60;;
9997;SDS011;5038;53.064;8.624;2023-06-22T11:42:13;9.30;;;8.40;;
9997;SDS011;5038;53.064;8.624;2023-06-22T11:44:41;9.30;;;7.87;;
9997;SDS011;5038;53.064;8.624;2023-06-22T11:47:10;8.83;;;7.93;;
9997;SDS011;5038;53.064;8.624;2023-06-22T11:49:38;9.53;;;7.77;;
9997;SDS011;5038;53.064;8.624;2023-06-22T11:52:06;8.70;;;7.80;;
9997;SDS011;5038;53.064;8.624;2023-06-22T11:54:36;8.60;;;7.70;;
9997;SDS011;5038;53.064;8.624;2023-06-22T11:57:04;9.60;;;8.23;;
9997;SDS011;5038;53.064;8.624;2023-06-22T11:59:32;7.90;;;6.90;;
9997;SDS011;5038;53.064;8.624;2023-06-22T12:02:01;9.00;;;7.80;;
9997;SDS011;5038;53.064;8.624;2023-06-22T12:04:30;8.90;;;7.80;;
9997;SDS011;5038;53.064;8.624;2023-06-22T12:06:58;9.80;;;8.37;;
9997;SDS011;5038;53.064;8.624;2023-06-22T12:09:26;10.03;;;8.37;;
9997;SDS011;5038;53.064;8.624;2023-06-22T12:11:55;8.27;;;7.47;;
9997;SDS011;5038;53.064;8.624;2023-06-22T12:14:23;8.53;;;7.63;;
9997;SDS011;5038;53.064;8.624;2023-06-22T12:16:51;7.63;;;6.90;;
9997;SDS011;5038;53.064;8.624;2023-06-22T12:19:19;8.27;;;7.40;;
9997;SDS011;5038;53.064;8.624;2023-06-22T12:21:47;7.97;;;7.17;;
9997;SDS011;5038;53.064;8.624;2023-06-22T12:24:16;9.13;;;8.10;;
9997;SDS011;5038;53.064;8.624;2023-06-22T12:26:44;7.97;;;6.43;;
9997;SDS011;5038;53.064;8.624;2023-06-22T12:29:13;10.70;;;8.10;;
9997;SDS011;5038;53.064;8.624;2023-06-22T12:31:41;8.90;;;8.00;;
9997;SDS011;5038;53.064;8.624;2023-06-22T12:34:09;9.53;;;8.33;;
9997;SDS011;5038;53.064;8.624;2023-06-22T12:36:37;8.40;;;7.50;;
9997;SDS011;5038;53.064;8.624;2023-06-22T12:39:05;8.30;;;7.40;;
9997;SDS011;5038;53.064;8.624;2023-06-22T12:41:34;7.90;;;7.10;;
9997;SDS011;5038;53.064;8.624;2023-06-22T12:44:02;8.30;;;7.50;;
9997;SDS011;5038;53.064;8.624;2023-06-22T12:46:31;9.13;;;7.00;;
9997;SDS011;5038;53.064;8.624;2023-06-22T12:49:04;8.37;;;7.23;;
9997;SDS011;5038;53.064;8.624;2023-06-22T12:51:32;7.73;;;6.93;;
9997;SDS011;5038;53.064;8.624;2023-06-22T12:54:00;8.73;;;7.27;;
9997;SDS011;5038;53.064;8.624;2023-06-22T12:56:28;8.07;;;7.27;;
9997;SDS011;5038;53.064;8.624;2023-06-22T12:58:56;8.70;;;6.80;;
9997;SDS011;5038;53.064;8.624;2023-06-22T13:01:26;9.03;;;7.80;;
9997;SDS011;5038;53.064;8.624;2023-06-22T13:03:55;8.10;;;7.30;;
9997;SDS011;5038;53.064;8.624;2023-06-22T13:06:24;8.43;;;6.93;;
9997;SDS011;5038;53.064;8.624;2023-06-22T13:08:52;11.77;;;8.23;;
9997;SDS011;5038;53.064;8.624;2023-06-22T13:11:23;7.63;;;6.70;;
9997;SDS011;5038;53.064;8.624;2023-06-22T13:13:51;7.47;;;6.20;;
9997;SDS011;5038;53.064;8.624;2023-06-22T13:16:19;7.30;;;6.60;;
9997;SDS011;5038;53.064;8.624;2023-06-22T13:18:47;9.70;;;7.37;;
9997;SDS011;5038;53.064;8.624;2023-06-22T13:21:17;7.77;;;6.97;;
9997;SDS011;5038;53.064;8.624;2023-06-22T13:23:45;6.90;;;6.20;;
9997;SDS011;5038;53.064;8.624;2023-06-22T13:26:13;7.77;;;6.80;;
9997;SDS011;5038;53.064;8.624;2023-06-22T13:28:41;8.03;;;6.43;;
9997;SDS011;5038;53.064;8.624;2023-06-22T13:31:10;13.63;;;6.40;;
9997;SDS011;5038;53.064;8.624;2023-06-22T13:33:38;7.70;;;6.90;;
9997;SDS011;5038;53.064;8.624;2023-06-22T13:36:07;7.53;;;6.37;;
9997;SDS011;5038;53.064;8.624;2023-06-22T13:38:36;7.97;;;6.70;;
9997;SDS011;5038;53.064;8.624;2023-06-22T13:41:05;7.50;;;6.70;;
9997;SDS011;5038;53.064;8.624;2023-06-22T13:43:33;7.53;;;6.83;;
9997;SDS011;5038;53.064;8.624;2023-06-22T13:46:02;7.57;;;6.67;;
9997;SDS011;5038;53.064;8.624;2023-06-22T13:48:30;7.00;;;6.30;;
9997;SDS011;5038;53.064;8.624;2023-06-22T13:50:58;7.07;;;6.37;;
9997;SDS011;5038;53.064;8.624;2023-06-22T13:53:26;8.30;;;6.97;;
9997;SDS011;5038;53.064;8.624;2023-06-22T13:55:56;8.10;;;6.90;;
9997;SDS011;5038;53.064;8.624;2023-06-22T13:58:24;11.07;;;6.60;;
9997;SDS011;5038;53.064;8.624;2023-06-22T14:00:52;10.93;;;7.20;;
9997;SDS011;5038;53.064;8.624;2023-06-22T14:03:40;7.00;;;6.30;;
9997;SDS011;5038;53.064;8.624;2023-06-22T14:06:12;8.60;;;6.47;;
9997;SDS011;5038;53.064;8.624;2023-06-22T14:08:40;7.43;;;6.40;;
9997;SDS011;5038;53.064;8.624;2023-06-22T14:11:09;8.63;;;7.30;;
9997;SDS011;5038;53.064;8.624;2023-06-22T14:13:37;8.17;;;6.90;;
9997;SDS011;5038;53.064;8.624;2023-06-22T14:16:08;7.43;;;6.60;;
9997;SDS011;5038;53.064;8.624;2023-06-22T14:18:36;9.30;;;7.13;;
9997;SDS011;5038;53.064;8.624;2023-06-22T14:21:05;7.60;;;6.63;;
9997;SDS011;5038;53.064;8.624;2023-06-22T14:23:33;8.70;;;6.30;;
9997;SDS011;5038;53.064;8.624;2023-06-22T14:26:01;8.40;;;7.20;;
9997;SDS011;5038;53.064;8.624;2023-06-22T14:28:30;8.30;;;6.90;;
9997;SDS011;5038;53.064;8.624;2023-06-22T14:30:58;7.43;;;6.73;;
9997;SDS011;5038;53.064;8.624;2023-06-22T14:33:27;8.10;;;6.30;;
9997;SDS011;5038;53.064;8.624;2023-06-22T14:35:55;10.20;;;7.40;;
9997;SDS011;5038;53.064;8.624;2023-06-22T14:38:23;10.00;;;7.33;;
9997;SDS011;5038;53.064;8.624;2023-06-22T14:40:51;9.50;;;7.43;;
9997;SDS011;5038;53.064;8.624;2023-06-22T14:43:25;8.97;;;8.07;;
9997;SDS011;5038;53.064;8.624;2023-06-22T14:45:55;8.17;;;7.37;;
9997;SDS011;5038;53.064;8.624;2023-06-22T14:48:23;10.50;;;7.80;;
9997;SDS011;5038;53.064;8.624;2023-06-22T14:50:52;8.47;;;7.67;;
9997;SDS011;5038;53.064;8.624;2023-06-22T14:53:20;8.20;;;7.40;;
9997;SDS011;5038;53.064;8.624;2023-06-22T14:55:49;10.10;;;8.73;;
9997;SDS011;5038;53.064;8.624;2023-06-22T14:58:17;11.23;;;9.30;;
9997;SDS011;5038;53.064;8.624;2023-06-22T15:00:45;10.23;;;9.13;;
9997;SDS011;5038;53.064;8.624;2023-06-22T15:03:15;11.07;;;8.57;;
9997;SDS011;5038;53.064;8.624;2023-06-22T15:05:48;11.53;;;9.40;;
9997;SDS011;5038;53.064;8.624;2023-06-22T15:08:16;10.93;;;9.50;;
9997;SDS011;5038;53.064;8.624;2023-06-22T15:10:44;10.27;;;9.17;;